Time;durP1;ratioP1;P1;durP2;ratioP2;P2;SDS_P1;SDS_P2;PMS_P1;PMS_P2;Temp;Humidity;BMP_temperature;BMP_pressure;BME280_temperature;BME280_humidity;BME280_pressure;Samples;Min_cycle;Max_cycle;Signal;HPM_P1;HPM_P2
2022/09/05 00:01:52;;;;;;;6.87;3.97;;;;;;;24.73;100.00;101765.22;5077308;28;20044;-62
2022/09/05 00:04:41;;;;;;;13.00;3.57;;;;;;;24.64;100.00;101769.53;5079691;28;20104;-62
2022/09/05 00:07:09;;;;;;;6.47;3.57;;;;;;;24.66;100.00;101759.16;5077446;28;20037;-62
2022/09/05 00:09:59;;;;;;;6.70;3.60;;;;;;;24.60;100.00;101760.25;5079692;28;20099;-64
2022/09/05 00:12:27;;;;;;;11.10;3.93;;;;;;;24.59;100.00;101758.59;5081365;28;20025;-62
2022/09/05 00:14:59;;;;;;;9.33;3.30;;;;;;;24.62;100.00;101749.84;5082908;28;20043;-63
2022/09/05 00:17:59;;;;;;;11.00;3.80;;;;;;;24.53;100.00;101751.47;5074002;28;20048;-62
2022/09/05 00:20:34;;;;;;;6.97;3.80;;;;;;;24.29;100.00;101744.53;5079070;28;20035;-62
2022/09/05 00:23:13;;;;;;;7.57;3.83;;;;;;;24.51;100.00;101745.47;5078877;28;20032;-62
2022/09/05 00:26:08;;;;;;;10.83;4.03;;;;;;;24.19;100.00;101745.31;5072854;28;20020;-63
2022/09/05 00:28:53;;;;;;;7.57;3.63;;;;;;;24.33;100.00;101747.56;5079613;28;20036;-63
2022/09/05 00:31:29;;;;;;;8.43;4.00;;;;;;;24.26;100.00;101744.28;5069739;28;20092;-63
2022/09/05 00:33:57;;;;;;;5.90;3.30;;;;;;;24.30;100.00;101746.19;5080030;28;20048;-62
2022/09/05 00:36:39;;;;;;;5.67;3.60;;;;;;;24.31;100.00;101744.28;5076938;28;20029;-61
2022/09/05 00:39:16;;;;;;;9.30;4.30;;;;;;;24.32;100.00;101745.94;5070794;28;20029;-61
2022/09/05 00:41:45;;;;;;;5.17;3.70;;;;;;;24.29;100.00;101743.72;5072042;28;20028;-64
2022/09/05 00:44:13;;;;;;;9.23;4.23;;;;;;;24.28;100.00;101742.09;5077798;28;20049;-62
2022/09/05 00:47:00;;;;;;;14.33;4.03;;;;;;;24.23;100.00;101739.34;5076322;28;20029;-62
2022/09/05 00:49:39;;;;;;;6.43;3.67;;;;;;;24.26;100.00;101738.81;5076774;28;20032;-63
2022/09/05 00:52:26;;;;;;;8.93;3.83;;;;;;;24.25;100.00;101737.16;5074391;28;20081;-61
2022/09/05 00:55:01;;;;;;;9.60;4.05;;;;;;;24.23;100.00;101734.69;5072224;28;20033;-62
2022/09/05 00:57:49;;;;;;;11.73;4.10;;;;;;;24.22;100.00;101737.66;5070076;28;20067;-62
2022/09/05 01:00:17;;;;;;;8.27;3.90;;;;;;;24.18;100.00;101732.75;5070618;28;20033;-62
2022/09/05 01:03:08;;;;;;;9.93;4.17;;;;;;;24.15;100.00;101740.66;5076289;28;20057;-63
2022/09/05 01:06:12;;;;;;;11.33;4.13;;;;;;;24.10;100.00;101732.41;5071868;28;20032;-62
2022/09/05 01:08:58;;;;;;;5.93;3.90;;;;;;;24.07;100.00;101736.53;5075916;28;20029;-62
2022/09/05 01:11:24;;;;;;;7.15;4.25;;;;;;;23.97;100.00;101739.16;5079235;28;20036;-62
2022/09/05 01:14:11;;;;;;;7.50;3.90;;;;;;;24.05;100.00;101741.44;5078235;28;20033;-60
2022/09/05 01:17:01;;;;;;;8.77;4.15;;;;;;;23.97;100.00;101740.00;5071996;28;20266;-61
2022/09/05 01:19:46;;;;;;;7.47;4.30;;;;;;;23.97;100.00;101736.41;5075263;28;20100;-62
2022/09/05 01:22:42;;;;;;;6.50;4.03;;;;;;;23.92;100.00;101739.97;5071237;28;21346;-62
2022/09/05 01:25:27;;;;;;;13.40;4.97;;;;;;;23.62;100.00;101735.94;5069370;28;20096;-61
2022/09/05 01:27:59;;;;;;;6.87;4.70;;;;;;;23.91;100.00;101730.94;5073390;28;20068;-62
2022/09/05 01:30:34;;;;;;;7.93;4.60;;;;;;;23.91;100.00;101735.59;5075074;28;20028;-58
2022/09/05 01:33:16;;;;;;;11.00;5.40;;;;;;;23.90;100.00;101736.69;5073452;28;20037;-61
2022/09/05 01:35:53;;;;;;;8.70;4.90;;;;;;;23.88;100.00;101736.94;5071916;28;20088;-63
2022/09/05 01:38:39;;;;;;;8.73;5.80;;;;;;;23.91;100.00;101741.06;5075761;28;20040;-60
2022/09/05 01:41:27;;;;;;;11.83;5.87;;;;;;;23.79;100.00;101730.34;5075601;28;20162;-61
2022/09/05 01:44:21;;;;;;;11.83;5.70;;;;;;;23.80;100.00;101733.88;5080767;28;20105;-63
2022/09/05 01:47:38;;;;;;;14.47;6.17;;;;;;;23.63;100.00;101735.69;5077101;28;20029;-63
2022/09/05 01:50:19;;;;;;;13.63;5.90;;;;;;;23.69;100.00;101731.09;5043392;28;20044;-61
2022/09/05 01:53:03;;;;;;;8.87;5.57;;;;;;;23.67;100.00;101730.53;5078114;28;20036;-62
2022/09/05 01:55:59;;;;;;;13.93;6.57;;;;;;;23.75;100.00;101737.38;5078009;28;20025;-62
2022/09/05 01:58:54;;;;;;;11.55;7.00;;;;;;;23.48;100.00;101735.56;5075508;28;20039;-62
2022/09/05 02:01:20;;;;;;;11.63;6.57;;;;;;;23.56;100.00;101731.53;5078325;28;20096;-63
2022/09/05 02:03:58;;;;;;;8.75;6.05;;;;;;;23.61;100.00;101726.94;5076579;28;20066;-61
2022/09/05 02:06:42;;;;;;;13.53;6.37;;;;;;;23.60;100.00;101733.47;5080455;28;20021;-66
2022/09/05 02:09:14;;;;;;;10.60;6.43;;;;;;;23.53;100.00;101727.44;5078490;28;20032;-62
2022/09/05 02:11:54;;;;;;;14.60;7.40;;;;;;;23.47;100.00;101736.63;5079827;28;20040;-62
2022/09/05 02:14:53;;;;;;;13.13;6.17;;;;;;;23.08;100.00;101734.13;5079354;28;20037;-62
2022/09/05 02:17:45;;;;;;;15.17;7.33;;;;;;;23.18;100.00;101728.75;5081944;28;20059;-63
2022/09/05 02:20:30;;;;;;;18.93;7.13;;;;;;;23.22;100.00;101737.25;5080013;28;20123;-62
2022/09/05 02:22:55;;;;;;;11.00;6.83;;;;;;;22.87;100.00;101733.91;5079575;28;20070;-63
2022/09/05 02:25:29;;;;;;;11.18;6.45;;;;;;;22.83;100.00;101730.03;5082417;28;20053;-63
2022/09/05 02:28:12;;;;;;;15.17;7.00;;;;;;;22.83;100.00;101730.03;5076167;28;20037;-64
2022/09/05 02:30:48;;;;;;;13.07;6.33;;;;;;;22.74;100.00;101733.22;5075548;28;20025;-62
2022/09/05 02:33:28;;;;;;;14.60;6.40;;;;;;;22.60;100.00;101726.50;5077144;28;20028;-62
2022/09/05 02:36:27;;;;;;;13.00;6.43;;;;;;;22.58;100.00;101734.97;5079312;28;20033;-63
2022/09/05 02:39:13;;;;;;;12.07;6.53;;;;;;;22.57;100.00;101738.75;5078703;28;20037;-64
2022/09/05 02:41:56;;;;;;;11.13;6.50;;;;;;;22.84;100.00;101732.50;5079835;28;20044;-63
2022/09/05 02:44:30;;;;;;;11.60;6.93;;;;;;;23.05;100.00;101730.78;5075854;28;20105;-63
2022/09/05 02:47:21;;;;;;;11.53;6.63;;;;;;;22.51;100.00;101738.94;5077860;28;20084;-61
2022/09/05 02:50:00;;;;;;;13.63;7.97;;;;;;;22.85;100.00;101730.63;5079954;28;20028;-63
2022/09/05 02:52:29;;;;;;;14.17;7.40;;;;;;;22.96;100.00;101735.06;5076835;28;20048;-62
2022/09/05 02:54:57;;;;;;;11.27;6.77;;;;;;;22.99;100.00;101737.28;5080581;28;20051;-63
2022/09/05 02:57:45;;;;;;;15.07;8.03;;;;;;;23.13;100.00;101739.59;5079288;28;20056;-62
2022/09/05 03:00:23;;;;;;;10.47;7.87;;;;;;;23.18;100.00;101731.47;5077606;28;20029;-63
2022/09/05 03:03:13;;;;;;;11.30;7.40;;;;;;;23.20;100.00;101729.28;5078990;28;20025;-63
2022/09/05 03:05:50;;;;;;;9.87;7.50;;;;;;;23.20;100.00;101734.75;5077855;28;20054;-63
2022/09/05 03:08:47;;;;;;;13.73;7.90;;;;;;;23.18;100.00;101732.31;5078246;28;20035;-63
2022/09/05 03:11:31;;;;;;;13.53;7.73;;;;;;;23.15;100.00;101737.44;5081336;28;20028;-63
2022/09/05 03:14:23;;;;;;;14.03;7.93;;;;;;;23.12;100.00;101733.31;5077170;28;20270;-62
2022/09/05 03:17:26;;;;;;;13.47;7.93;;;;;;;23.19;100.00;101741.28;5078904;28;20032;-63
2022/09/05 03:20:37;;;;;;;14.73;8.50;;;;;;;23.15;100.00;101740.16;5075457;28;20040;-62
2022/09/05 03:23:12;;;;;;;13.17;7.97;;;;;;;23.09;100.00;101744.75;5074491;28;20483;-63
2022/09/05 03:26:06;;;;;;;16.90;8.57;;;;;;;23.10;100.00;101740.94;5073458;28;20083;-63
2022/09/05 03:29:10;;;;;;;14.77;8.80;;;;;;;23.08;100.00;101740.38;5063412;28;20029;-63
2022/09/05 03:32:20;;;;;;;15.67;8.40;;;;;;;23.12;100.00;101743.41;5075234;28;20039;-62
2022/09/05 03:34:45;;;;;;;14.90;8.97;;;;;;;23.04;100.00;101753.69;5079206;28;20064;-63
2022/09/05 03:37:49;;;;;;;13.80;8.50;;;;;;;22.92;100.00;101750.31;5078147;28;20063;-63
2022/09/05 03:40:36;;;;;;;15.33;9.53;;;;;;;22.87;100.00;101745.63;5080427;28;20288;-63
2022/09/05 03:43:19;;;;;;;15.70;9.30;;;;;;;22.56;100.00;101744.47;5078752;28;20119;-63
2022/09/05 03:46:20;;;;;;;14.07;8.90;;;;;;;22.71;100.00;101739.19;5073645;28;20100;-62
2022/09/05 03:49:09;;;;;;;18.67;10.17;;;;;;;22.75;100.00;101743.03;5079110;28;20048;-63
2022/09/05 03:52:08;;;;;;;15.50;8.67;;;;;;;22.70;100.00;101742.16;5077377;28;20170;-62
2022/09/05 03:54:58;;;;;;;20.10;9.73;;;;;;;22.75;100.00;101734.06;5075895;28;20055;-62
2022/09/05 03:57:43;;;;;;;20.73;9.63;;;;;;;22.66;100.00;101736.41;5076910;28;20036;-63
2022/09/05 04:00:21;;;;;;;16.60;10.60;;;;;;;22.69;100.00;101735.91;5082962;28;20044;-63
2022/09/05 04:03:00;;;;;;;18.13;10.93;;;;;;;22.71;100.00;101741.91;5078850;28;20028;-62
2022/09/05 04:05:36;;;;;;;16.20;11.13;;;;;;;22.56;100.00;101742.56;5076165;28;20016;-63
2022/09/05 04:08:08;;;;;;;16.98;10.43;;;;;;;22.47;100.00;101744.91;5081827;28;20070;-63
2022/09/05 04:10:34;;;;;;;23.80;13.90;;;;;;;22.58;100.00;101743.13;5076251;28;20051;-63
2022/09/05 04:13:39;;;;;;;20.83;11.15;;;;;;;22.59;100.00;101742.06;5081107;28;20029;-63
2022/09/05 04:16:16;;;;;;;24.23;12.20;;;;;;;22.32;100.00;101747.41;5058774;28;20044;-64
2022/09/05 04:18:50;;;;;;;27.70;15.40;;;;;;;22.32;100.00;101750.97;5072016;28;20040;-63
2022/09/05 04:21:26;;;;;;;17.97;11.90;;;;;;;22.22;100.00;101744.56;5078625;28;20119;-62
2022/09/05 04:24:24;;;;;;;28.13;15.60;;;;;;;22.25;100.00;101749.50;5080091;28;20096;-62
2022/09/05 04:27:24;;;;;;;28.87;17.43;;;;;;;22.19;100.00;101748.59;5060546;28;20261;-63
2022/09/05 04:30:27;;;;;;;29.30;17.03;;;;;;;22.12;100.00;101748.78;5077378;28;20068;-62
2022/09/05 04:33:17;;;;;;;26.33;13.63;;;;;;;22.02;100.00;101749.47;5077641;28;20092;-64
2022/09/05 04:36:05;;;;;;;32.50;18.87;;;;;;;22.06;100.00;101747.91;5077583;28;20043;-63
2022/09/05 04:38:35;;;;;;;23.47;13.67;;;;;;;22.09;100.00;101748.47;5077464;28;20028;-63
2022/09/05 04:41:08;;;;;;;26.13;15.93;;;;;;;22.06;100.00;101755.25;5080149;28;20048;-63
2022/09/05 04:43:47;;;;;;;28.30;16.00;;;;;;;21.97;100.00;101754.03;5076413;28;20037;-63
2022/09/05 04:46:30;;;;;;;23.63;13.57;;;;;;;22.17;100.00;101757.03;5077350;28;20059;-63
2022/09/05 04:49:05;;;;;;;27.17;15.07;;;;;;;22.24;100.00;101754.13;5079026;28;20037;-63
2022/09/05 04:52:01;;;;;;;21.30;13.33;;;;;;;21.84;100.00;101758.75;5074905;28;20029;-63
2022/09/05 04:54:39;;;;;;;20.50;11.40;;;;;;;21.78;100.00;101760.56;5078530;28;20100;-63
2022/09/05 04:57:21;;;;;;;23.80;13.57;;;;;;;22.08;100.00;101763.19;5075882;28;20036;-64
2022/09/05 05:00:19;;;;;;;18.70;12.23;;;;;;;22.01;100.00;101771.50;5074476;28;20033;-63
2022/09/05 05:02:48;;;;;;;23.43;12.47;;;;;;;22.14;100.00;101768.41;5078782;28;20033;-63
2022/09/05 05:05:45;;;;;;;25.17;12.07;;;;;;;21.99;100.00;101773.66;5075123;28;20029;-63
2022/09/05 05:08:17;;;;;;;25.05;12.43;;;;;;;22.05;100.00;101770.78;5065477;28;20063;-64
2022/09/05 05:10:50;;;;;;;24.00;11.80;;;;;;;22.06;100.00;101772.41;5079222;28;20060;-63
2022/09/05 05:13:35;;;;;;;22.50;12.10;;;;;;;22.08;100.00;101769.44;5079450;28;20056;-63
2022/09/05 05:16:12;;;;;;;30.60;12.90;;;;;;;22.00;100.00;101772.59;5083364;28;20033;-62
2022/09/05 05:18:48;;;;;;;22.00;12.07;;;;;;;21.96;100.00;101774.16;5083739;28;20043;-63
2022/09/05 05:21:26;;;;;;;23.60;12.07;;;;;;;22.12;100.00;101773.28;5077448;28;20036;-63
2022/09/05 05:24:14;;;;;;;19.63;11.57;;;;;;;21.83;100.00;101770.69;5080594;28;20049;-64
2022/09/05 05:27:11;;;;;;;25.23;12.53;;;;;;;21.69;100.00;101769.41;5077949;28;20076;-63
2022/09/05 05:29:47;;;;;;;18.25;11.57;;;;;;;21.69;100.00;101772.13;5078964;28;20092;-65
2022/09/05 05:32:34;;;;;;;17.03;11.00;;;;;;;21.99;100.00;101771.75;5079615;28;20039;-64
2022/09/05 05:35:09;;;;;;;19.00;11.95;;;;;;;21.97;100.00;101770.38;5082448;28;20048;-63
2022/09/05 05:37:41;;;;;;;22.27;11.97;;;;;;;22.24;100.00;101765.00;5082619;28;20029;-64
2022/09/05 05:40:17;;;;;;;14.97;10.30;;;;;;;22.24;100.00;101772.38;5074268;28;20029;-64
2022/09/05 05:42:45;;;;;;;16.75;10.38;;;;;;;22.31;100.00;101764.84;5072725;28;20049;-64
2022/09/05 05:45:16;;;;;;;16.23;10.13;;;;;;;;;;5077118;28;20053;-64
2022/09/05 05:47:45;;;;;;;18.17;11.43;;;;;;;22.41;100.00;101767.72;5071893;28;20052;-64
2022/09/05 05:50:56;;;;;;;24.03;11.70;;;;;;;22.38;100.00;101773.66;5078948;28;20057;-63
2022/09/05 05:53:55;;;;;;;20.70;11.63;;;;;;;22.41;100.00;101766.88;5059988;28;20037;-64
2022/09/05 05:56:47;;;;;;;20.10;10.67;;;;;;;22.49;100.00;101761.84;5072011;28;20039;-64
2022/09/05 05:59:15;;;;;;;13.90;9.30;;;;;;;22.49;100.00;101775.47;5073717;28;20040;-63
2022/09/05 06:02:06;;;;;;;16.33;10.80;;;;;;;22.48;100.00;101779.25;5073882;28;20033;-63
2022/09/05 06:05:02;;;;;;;22.37;10.43;;;;;;;22.07;100.00;101773.22;5078291;28;20029;-63
2022/09/05 06:07:54;;;;;;;21.77;10.98;;;;;;;22.06;100.00;101783.31;5078745;28;20025;-63
2022/09/05 06:10:44;;;;;;;22.33;11.23;;;;;;;22.15;100.00;101785.59;5081194;28;20058;-63
2022/09/05 06:13:38;;;;;;;18.63;11.83;;;;;;;22.12;100.00;101786.91;5083916;28;20037;-63
2022/09/05 06:16:28;;;;;;;15.73;11.03;;;;;;;22.32;100.00;101791.00;5080314;28;20063;-64
2022/09/05 06:19:40;;;;;;;20.90;11.83;;;;;;;22.41;100.00;101800.41;5083088;28;20036;-63
2022/09/05 06:22:41;;;;;;;18.23;12.10;;;;;;;22.11;100.00;101798.06;5074256;28;20049;-63
2022/09/05 06:25:46;;;;;;;16.13;10.43;;;;;;;22.55;100.00;101800.03;5073863;28;20055;-63
2022/09/05 06:28:24;;;;;;;17.57;11.77;;;;;;;22.78;100.00;101807.97;5074420;28;20029;-64
2022/09/05 06:31:25;;;;;;;23.00;12.87;;;;;;;22.39;100.00;101818.91;5074130;28;21536;-63
2022/09/05 06:34:00;;;;;;;19.23;12.40;;;;;;;22.49;100.00;101808.16;5067314;28;20040;-64
2022/09/05 06:36:44;;;;;;;22.20;11.63;;;;;;;22.54;100.00;101814.75;5072192;28;20108;-65
2022/09/05 06:39:35;;;;;;;21.90;12.73;;;;;;;22.05;100.00;101824.41;5074632;28;20092;-64
2022/09/05 06:42:16;;;;;;;20.40;13.23;;;;;;;22.38;100.00;101817.25;5073392;28;20029;-64
2022/09/05 06:44:57;;;;;;;22.63;12.90;;;;;;;22.66;100.00;101812.75;5076473;28;20073;-64
2022/09/05 06:47:24;;;;;;;20.80;12.10;;;;;;;22.96;100.00;101810.63;5076381;28;20090;-63
2022/09/05 06:49:59;;;;;;;;;;;;;;;22.96;100.00;101806.00;5079111;28;20048;-63
2022/09/05 06:53:04;;;;;;;20.27;11.90;;;;;;;23.24;100.00;101806.81;5075337;28;19923;-64
2022/09/05 06:56:05;;;;;;;24.20;12.43;;;;;;;23.13;100.00;101813.28;5072664;28;20063;-64
2022/09/05 06:59:08;;;;;;;21.23;13.00;;;;;;;23.22;100.00;101817.16;5073123;28;20030;-65
2022/09/05 07:01:49;;;;;;;30.70;12.27;;;;;;;23.23;100.00;101813.34;5068257;28;20025;-64
2022/09/05 07:04:46;;;;;;;21.73;12.00;;;;;;;23.33;100.00;101816.25;5070931;28;20036;-65
2022/09/05 07:07:22;;;;;;;;;;;;;;;23.66;100.00;101813.53;5071405;28;20045;-63
2022/09/05 07:10:03;;;;;;;24.10;12.17;;;;;;;23.61;100.00;101805.28;5075317;28;19923;-64
2022/09/05 07:12:45;;;;;;;25.77;12.90;;;;;;;23.74;100.00;101812.19;5074821;28;20037;-64
2022/09/05 07:15:51;;;;;;;21.53;13.43;;;;;;;23.88;100.00;101810.69;5074253;28;20084;-63
2022/09/05 07:18:33;;;;;;;18.17;12.20;;;;;;;24.03;100.00;101811.91;5071965;28;20037;-63
2022/09/05 07:21:04;;;;;;;20.27;12.07;;;;;;;24.27;100.00;101806.03;5072902;28;20037;-63
2022/09/05 07:23:48;;;;;;;21.20;12.20;;;;;;;24.47;100.00;101810.78;5073763;28;20085;-62
2022/09/05 07:26:16;;;;;;;22.43;11.30;;;;;;;24.53;100.00;101814.38;5073418;28;20040;-64
2022/09/05 07:28:46;;;;;;;23.23;11.70;;;;;;;24.64;100.00;101816.03;5075190;28;20070;-64
2022/09/05 07:31:19;;;;;;;22.53;10.97;;;;;;;24.71;100.00;101815.78;5075252;28;20029;-63
2022/09/05 07:33:47;;;;;;;21.57;10.80;;;;;;;24.74;100.00;101818.00;5076360;28;20025;-64
2022/09/05 07:36:30;;;;;;;19.27;10.97;;;;;;;24.66;100.00;101824.78;5074735;28;20029;-64
2022/09/05 07:39:00;;;;;;;16.93;10.60;;;;;;;24.61;100.00;101819.31;5071145;28;20049;-62
2022/09/05 07:41:29;;;;;;;23.40;10.47;;;;;;;24.64;100.00;101821.50;5076588;28;20051;-64
2022/09/05 07:44:03;;;;;;;20.17;10.23;;;;;;;24.86;100.00;101826.00;5068999;28;20068;-64
2022/09/05 07:46:34;;;;;;;20.00;9.60;;;;;;;25.01;100.00;101828.78;5072210;28;20031;-64
2022/09/05 07:49:15;;;;;;;13.47;9.37;;;;;;;24.88;100.00;101827.38;5075527;28;20029;-64
2022/09/05 07:51:55;;;;;;;14.23;9.63;;;;;;;24.98;100.00;101832.06;5073923;28;20123;-63
2022/09/05 07:54:27;;;;;;;35.43;16.23;;;;;;;25.21;100.00;101838.13;5072642;28;20028;-64
2022/09/05 07:57:02;;;;;;;194.53;114.10;;;;;;;25.33;100.00;101841.44;5071900;28;20043;-64
2022/09/05 07:59:32;;;;;;;27.53;15.70;;;;;;;25.50;100.00;101847.81;5073753;28;20051;-63
2022/09/05 08:01:59;;;;;;;58.10;32.77;;;;;;;25.56;100.00;101842.03;5072734;28;20036;-63
2022/09/05 08:04:34;;;;;;;54.33;27.77;;;;;;;25.59;100.00;101849.69;5077968;28;20036;-62
2022/09/05 08:07:36;;;;;;;49.70;29.57;;;;;;;25.62;100.00;101849.19;5074823;28;20048;-63
2022/09/05 08:10:09;;;;;;;320.47;175.10;;;;;;;25.86;100.00;101856.84;5071001;28;20036;-60
2022/09/05 08:12:47;;;;;;;27.50;13.27;;;;;;;26.07;100.00;101854.09;5074141;28;20071;-55
2022/09/05 08:15:22;;;;;;;25.33;10.93;;;;;;;25.95;100.00;101854.38;5072996;28;20039;-56
2022/09/05 08:18:25;;;;;;;21.93;9.73;;;;;;;26.15;100.00;101847.19;5074646;28;20025;-53
2022/09/05 08:21:06;;;;;;;18.40;11.10;;;;;;;26.30;100.00;101851.88;5071157;28;20037;-56
2022/09/05 08:23:49;;;;;;;22.20;10.87;;;;;;;26.31;100.00;101846.09;5070229;28;20040;-55
2022/09/05 08:26:22;;;;;;;23.13;11.37;;;;;;;26.57;100.00;101848.75;5070309;28;20037;-58
2022/09/05 08:29:03;;;;;;;20.43;10.60;;;;;;;26.76;100.00;101846.22;5074809;28;20025;-57
2022/09/05 08:31:44;;;;;;;18.67;10.80;;;;;;;26.97;100.00;101861.78;5071603;28;20063;-56
2022/09/05 08:34:18;;;;;;;17.13;9.70;;;;;;;27.28;100.00;101862.44;5070209;28;20075;-59
2022/09/05 08:36:47;;;;;;;18.03;10.30;;;;;;;27.37;100.00;101864.56;5069144;28;20107;-54
2022/09/05 08:39:24;;;;;;;16.67;9.30;;;;;;;27.45;100.00;101862.03;5073950;28;20061;-57
2022/09/05 08:42:19;;;;;;;20.30;9.65;;;;;;;27.59;100.00;101861.44;5076381;28;20037;-57
2022/09/05 08:45:03;;;;;;;22.27;10.00;;;;;;;27.75;100.00;101856.63;5073230;28;20048;-57
2022/09/05 08:47:45;;;;;;;27.63;10.10;;;;;;;27.95;100.00;101854.81;5071608;28;20096;-54
2022/09/05 08:50:38;;;;;;;22.90;9.23;;;;;;;28.04;100.00;101853.06;5075191;28;20043;-55
2022/09/05 08:53:34;;;;;;;22.33;10.70;;;;;;;28.04;100.00;101845.63;5073108;28;20097;-58
2022/09/05 08:56:13;;;;;;;17.87;10.37;;;;;;;28.31;100.00;101851.69;5075388;28;20040;-57
2022/09/05 08:58:50;;;;;;;19.03;9.83;;;;;;;28.57;100.00;101851.41;5078206;28;20035;-52
2022/09/05 09:01:52;;;;;;;19.03;9.83;;;;;;;28.82;100.00;101842.03;5072781;28;20052;-57
2022/09/05 09:04:22;;;;;;;18.17;8.70;;;;;;;29.57;98.87;101850.59;5054328;28;20048;-55
2022/09/05 09:07:13;;;;;;;15.68;7.82;;;;;;;30.10;93.93;101854.09;5072195;28;20073;-57
2022/09/05 09:09:54;;;;;;;16.23;8.45;;;;;;;30.67;87.66;101850.22;5069732;28;20036;-56
2022/09/05 09:12:49;;;;;;;13.38;7.72;;;;;;;31.05;81.85;101858.25;5071098;28;20061;-55
2022/09/05 09:15:24;;;;;;;17.80;6.78;;;;;;;31.67;76.85;101847.66;5066653;28;20033;-54
2022/09/05 09:17:51;;;;;;;9.50;6.13;;;;;;;32.01;71.03;101845.44;5065374;28;20059;-58
2022/09/05 09:20:35;;;;;;;12.55;6.15;;;;;;;32.29;65.62;101847.97;5073580;28;20044;-57
2022/09/05 09:23:05;;;;;;;12.35;5.07;;;;;;;32.64;65.93;101852.81;5071703;28;20044;-56
2022/09/05 09:25:42;;;;;;;23.17;5.72;;;;;;;33.20;61.84;101847.50;5074544;28;20055;-59
2022/09/05 09:28:25;;;;;;;8.90;4.57;;;;;;;33.02;58.95;101846.72;5074517;28;20097;-57
2022/09/05 09:31:20;;;;;;;8.88;4.22;;;;;;;33.99;54.99;101849.38;5070699;28;20057;-57
2022/09/05 09:33:58;;;;;;;10.60;5.25;;;;;;;34.53;56.13;101850.75;5051871;28;20059;-54
2022/09/05 09:36:44;;;;;;;10.00;4.00;;;;;;;34.91;53.05;101852.63;5071352;28;20060;-58
2022/09/05 09:39:37;;;;;;;11.07;5.32;;;;;;;36.07;50.71;101853.97;5074691;28;20085;-59
2022/09/05 09:42:47;;;;;;;9.38;3.78;;;;;;;36.66;47.75;101849.06;5073637;28;20055;-57
2022/09/05 09:45:45;;;;;;;15.35;3.60;;;;;;;37.04;44.48;101852.59;5074812;28;20045;-55
2022/09/05 09:48:16;;;;;;;12.90;5.53;;;;;;;37.16;44.89;101849.75;5068050;28;20037;-58
2022/09/05 09:51:09;;;;;;;7.35;3.78;;;;;;;37.35;43.67;101844.66;5067338;28;20084;-57
2022/09/05 09:54:15;;;;;;;11.13;4.25;;;;;;;37.98;43.21;101843.97;5065494;28;20024;-58
2022/09/05 09:57:18;;;;;;;11.02;4.45;;;;;;;38.92;40.19;101842.47;5061667;28;20060;-58
2022/09/05 10:00:20;;;;;;;10.18;3.00;;;;;;;38.73;38.58;101841.25;5067970;28;20104;-56
2022/09/05 10:03:01;;;;;;;7.85;3.50;;;;;;;38.22;38.88;101842.13;5075122;28;20028;-57
2022/09/05 10:06:01;;;;;;;10.07;4.03;;;;;;;38.83;38.32;101839.88;5072121;28;20035;-58
2022/09/05 10:08:34;;;;;;;4.90;2.53;;;;;;;39.41;36.97;101834.63;5072617;28;20029;-57
2022/09/05 10:11:25;;;;;;;6.68;3.08;;;;;;;38.80;34.43;101829.44;5077149;28;20036;-58
2022/09/05 10:14:18;;;;;;;8.65;2.65;;;;;;;39.20;35.37;101835.03;5077677;28;20093;-57
2022/09/05 10:17:08;;;;;;;8.70;2.80;;;;;;;38.95;35.21;101827.75;5074617;28;20118;-60
2022/09/05 10:20:13;;;;;;;6.05;2.78;;;;;;;38.87;34.50;101823.19;5078560;28;20037;-59
2022/09/05 10:23:08;;;;;;;12.15;2.63;;;;;;;39.25;34.13;101820.75;5074209;28;20044;-58
2022/09/05 10:26:23;;;;;;;6.25;1.65;;;;;;;39.19;32.77;101823.03;5069550;28;20062;-58
2022/09/05 10:29:12;;;;;;;4.53;1.60;;;;;;;39.33;31.95;101816.09;5062762;28;20044;-58
2022/09/05 10:31:57;;;;;;;10.07;2.00;;;;;;;39.36;32.59;101815.34;5067008;28;20044;-58
2022/09/05 10:34:27;;;;;;;11.77;2.20;;;;;;;39.54;32.47;101813.72;5073108;28;20037;-58
2022/09/05 10:37:03;;;;;;;4.15;1.70;;;;;;;40.56;31.93;101806.84;5072397;28;20041;-57
2022/09/05 10:39:34;;;;;;;3.95;1.90;;;;;;;40.96;31.29;101796.94;5075764;28;20021;-57
2022/09/05 10:42:14;;;;;;;6.10;2.08;;;;;;;41.42;30.12;101806.22;5072833;28;20034;-57
2022/09/05 10:44:46;;;;;;;6.55;1.65;;;;;;;41.60;28.56;101797.19;5074923;28;20047;-58
2022/09/05 10:47:48;;;;;;;6.50;1.80;;;;;;;41.00;29.83;101797.78;5069221;28;20040;-60
2022/09/05 10:50:27;;;;;;;4.82;1.23;;;;;;;42.44;28.31;101796.53;5072164;28;20078;-59
2022/09/05 10:53:19;;;;;;;5.20;1.58;;;;;;;41.96;28.18;101800.22;5075148;28;20037;-58
2022/09/05 10:56:23;;;;;;;3.80;1.40;;;;;;;42.25;27.39;101797.66;5072429;28;20053;-58
2022/09/05 10:58:59;;;;;;;7.10;1.73;;;;;;;42.37;27.15;101788.84;5055476;28;20049;-59
2022/09/05 11:01:32;;;;;;;5.78;1.50;;;;;;;41.99;27.26;101800.28;5074889;28;20042;-59
2022/09/05 11:04:12;;;;;;;7.35;1.50;;;;;;;42.20;26.81;101798.81;5079056;28;20052;-59
2022/09/05 11:06:44;;;;;;;4.28;1.48;;;;;;;42.38;26.13;101796.09;5075693;28;20029;-58
2022/09/05 11:09:40;;;;;;;4.72;1.42;;;;;;;42.70;26.19;101795.44;5076361;28;20078;-58
2022/09/05 11:12:31;;;;;;;7.38;1.48;;;;;;;42.54;25.29;101798.59;5073533;28;20038;-59
2022/09/05 11:15:01;;;;;;;1.95;1.00;;;;;;;43.04;24.53;101793.53;5064609;28;20037;-59
2022/09/05 11:17:29;;;;;;;2.55;1.20;;;;;;;42.40;24.87;101796.50;5075979;28;20036;-59
2022/09/05 11:20:19;;;;;;;4.20;1.10;;;;;;;41.10;25.48;101781.47;5071662;28;20059;-58
2022/09/05 11:22:47;;;;;;;5.03;1.40;;;;;;;41.83;25.11;101771.66;5076020;28;20033;-58
2022/09/05 11:25:23;;;;;;;5.32;1.70;;;;;;;42.39;24.86;101780.03;5073665;28;20026;-58
2022/09/05 11:27:53;;;;;;;6.45;1.15;;;;;;;42.25;25.11;101780.78;5076219;28;20063;-58
2022/09/05 11:30:26;;;;;;;3.28;0.90;;;;;;;42.62;25.03;101778.94;5074499;28;20036;-58
2022/09/05 11:33:10;;;;;;;4.90;1.35;;;;;;;42.20;24.55;101795.19;5074504;28;20066;-59
2022/09/05 11:35:45;;;;;;;2.50;1.33;;;;;;;42.42;24.41;101782.06;5079105;28;20080;-59
2022/09/05 11:38:25;;;;;;;4.05;1.67;;;;;;;42.91;24.00;101779.03;5077429;28;20056;-58
2022/09/05 11:41:10;;;;;;;3.33;1.55;;;;;;;43.51;23.62;101785.16;5080019;28;20062;-58
2022/09/05 11:43:56;;;;;;;4.90;1.52;;;;;;;44.45;22.53;101786.97;5073108;28;20060;-59
2022/09/05 11:46:27;;;;;;;5.43;1.38;;;;;;;44.77;22.14;101792.47;5072922;28;20036;-59
2022/09/05 11:49:05;;;;;;;3.65;1.48;;;;;;;44.07;22.70;101793.94;5075346;28;20052;-59
2022/09/05 11:51:33;;;;;;;5.90;1.40;;;;;;;44.22;22.60;101777.00;5077653;28;20033;-59
2022/09/05 11:54:20;;;;;;;4.32;2.30;;;;;;;45.14;21.75;101780.97;5072922;28;20036;-59
2022/09/05 11:57:08;;;;;;;5.25;1.17;;;;;;;45.72;21.87;101770.00;5074062;28;20036;-57
2022/09/05 11:59:53;;;;;;;2.88;1.17;;;;;;;44.45;22.43;101770.88;5065888;28;20049;-58
2022/09/05 12:02:50;;;;;;;5.35;1.70;;;;;;;43.75;22.57;101775.09;5071348;28;20033;-58
2022/09/05 12:05:53;;;;;;;5.53;1.15;;;;;;;44.69;22.31;101766.31;5074713;28;20028;-59
2022/09/05 12:08:22;;;;;;;4.85;1.33;;;;;;;44.45;22.33;101764.41;5075439;28;20044;-59
2022/09/05 12:11:24;;;;;;;2.40;1.20;;;;;;;45.63;21.77;101764.00;5070633;28;20037;-58
2022/09/05 12:14:34;;;;;;;4.45;1.17;;;;;;;45.45;21.78;101764.19;5069171;28;20025;-60
2022/09/05 12:17:05;;;;;;;2.80;1.25;;;;;;;44.61;22.00;101755.50;5071011;28;20049;-58
2022/09/05 12:19:39;;;;;;;3.13;1.40;;;;;;;44.78;21.81;101753.78;5071237;28;20032;-58
2022/09/05 12:22:09;;;;;;;5.68;1.27;;;;;;;45.72;21.84;101757.88;5070913;28;20037;-58
2022/09/05 12:24:57;;;;;;;6.25;1.20;;;;;;;45.30;21.44;101755.81;5071509;28;20037;-59
2022/09/05 12:27:28;;;;;;;1.52;0.85;;;;;;;44.21;22.20;101758.47;5076650;28;20043;-57